sensor_id;sensor_type;location;lat;lon;timestamp;P1;durP1;ratioP1;P2;durP2;ratioP2
52868;SDS011;39100;53.480;6.158;2022-12-08T00:01:42;0.88;;;0.20;;
52868;SDS011;39100;53.480;6.158;2022-12-08T00:04:08;1.63;;;0.17;;
52868;SDS011;39100;53.480;6.158;2022-12-08T00:06:35;2.78;;;0.10;;
52868;SDS011;39100;53.480;6.158;2022-12-08T00:09:26;1.70;;;0.25;;
52868;SDS011;39100;53.480;6.158;2022-12-08T00:11:57;1.35;;;0.10;;
52868;SDS011;39100;53.480;6.158;2022-12-08T00:14:28;2.70;;;0.30;;
52868;SDS011;39100;53.480;6.158;2022-12-08T00:16:55;0.60;;;0.17;;
52868;SDS011;39100;53.480;6.158;2022-12-08T00:19:21;0.85;;;0.20;;
52868;SDS011;39100;53.480;6.158;2022-12-08T00:21:48;1.95;;;0.35;;
52868;SDS011;39100;53.480;6.158;2022-12-08T00:24:15;1.75;;;0.50;;
52868;SDS011;39100;53.480;6.158;2022-12-08T00:26:41;1.63;;;0.52;;
52868;SDS011;39100;53.480;6.158;2022-12-08T00:29:06;1.50;;;0.52;;
52868;SDS011;39100;53.480;6.158;2022-12-08T00:31:32;3.03;;;0.93;;
52868;SDS011;39100;53.480;6.158;2022-12-08T00:33:58;2.10;;;0.65;;
52868;SDS011;39100;53.480;6.158;2022-12-08T00:36:24;1.25;;;0.10;;
52868;SDS011;39100;53.480;6.158;2022-12-08T00:38:49;1.70;;;0.10;;
52868;SDS011;39100;53.480;6.158;2022-12-08T00:41:19;0.20;;;0.10;;
52868;SDS011;39100;53.480;6.158;2022-12-08T00:44:07;1.15;;;0.00;;
52868;SDS011;39100;53.480;6.158;2022-12-08T00:46:34;1.60;;;0.13;;
52868;SDS011;39100;53.480;6.158;2022-12-08T00:49:00;0.17;;;0.00;;
52868;SDS011;39100;53.480;6.158;2022-12-08T00:51:27;0.35;;;0.10;;
52868;SDS011;39100;53.480;6.158;2022-12-08T00:53:52;1.00;;;0.10;;
52868;SDS011;39100;53.480;6.158;2022-12-08T00:56:18;1.02;;;0.10;;
52868;SDS011;39100;53.480;6.158;2022-12-08T00:58:43;0.50;;;0.08;;
52868;SDS011;39100;53.480;6.158;2022-12-08T01:01:09;2.33;;;0.10;;
52868;SDS011;39100;53.480;6.158;2022-12-08T01:03:35;0.63;;;0.10;;
52868;SDS011;39100;53.480;6.158;2022-12-08T01:06:02;0.52;;;0.10;;
52868;SDS011;39100;53.480;6.158;2022-12-08T01:08:28;0.88;;;0.05;;
52868;SDS011;39100;53.480;6.158;2022-12-08T01:10:54;1.15;;;0.10;;
52868;SDS011;39100;53.480;6.158;2022-12-08T01:13:19;1.83;;;0.10;;
52868;SDS011;39100;53.480;6.158;2022-12-08T01:15:45;0.55;;;0.00;;
52868;SDS011;39100;53.480;6.158;2022-12-08T01:18:12;1.08;;;0.40;;
52868;SDS011;39100;53.480;6.158;2022-12-08T01:20:37;0.90;;;0.10;;
52868;SDS011;39100;53.480;6.158;2022-12-08T01:23:03;1.08;;;0.10;;
52868;SDS011;39100;53.480;6.158;2022-12-08T01:25:28;0.80;;;0.45;;
52868;SDS011;39100;53.480;6.158;2022-12-08T01:27:54;1.15;;;0.15;;
52868;SDS011;39100;53.480;6.158;2022-12-08T01:30:20;1.33;;;0.10;;
52868;SDS011;39100;53.480;6.158;2022-12-08T01:32:45;0.55;;;0.00;;
52868;SDS011;39100;53.480;6.158;2022-12-08T01:35:11;1.75;;;0.00;;
52868;SDS011;39100;53.480;6.158;2022-12-08T01:37:38;1.15;;;0.00;;
52868;SDS011;39100;53.480;6.158;2022-12-08T01:40:04;3.72;;;0.32;;
52868;SDS011;39100;53.480;6.158;2022-12-08T01:42:30;0.00;;;0.00;;
52868;SDS011;39100;53.480;6.158;2022-12-08T01:45:01;1.05;;;0.05;;
52868;SDS011;39100;53.480;6.158;2022-12-08T01:47:58;1.17;;;0.00;;
52868;SDS011;39100;53.480;6.158;2022-12-08T01:50:27;0.00;;;0.00;;
52868;SDS011;39100;53.480;6.158;2022-12-08T01:52:58;0.60;;;0.00;;
52868;SDS011;39100;53.480;6.158;2022-12-08T01:55:30;0.20;;;0.00;;
52868;SDS011;39100;53.480;6.158;2022-12-08T01:58:02;1.15;;;0.00;;
52868;SDS011;39100;53.480;6.158;2022-12-08T02:00:35;0.00;;;0.00;;
52868;SDS011;39100;53.480;6.158;2022-12-08T02:03:05;0.10;;;0.00;;
52868;SDS011;39100;53.480;6.158;2022-12-08T02:05:34;1.15;;;0.00;;
52868;SDS011;39100;53.480;6.158;2022-12-08T02:08:04;0.20;;;0.10;;
52868;SDS011;39100;53.480;6.158;2022-12-08T02:10:33;0.20;;;0.00;;
52868;SDS011;39100;53.480;6.158;2022-12-08T02:13:00;2.17;;;0.00;;
52868;SDS011;39100;53.480;6.158;2022-12-08T02:15:31;0.82;;;0.10;;
52868;SDS011;39100;53.480;6.158;2022-12-08T02:18:15;0.32;;;0.00;;
52868;SDS011;39100;53.480;6.158;2022-12-08T02:20:55;1.63;;;0.00;;
52868;SDS011;39100;53.480;6.158;2022-12-08T02:32:19;0.00;;;0.00;;
52868;SDS011;39100;53.480;6.158;2022-12-08T02:35:26;2.22;;;0.25;;
52868;SDS011;39100;53.480;6.158;2022-12-08T02:43:28;0.38;;;0.00;;
52868;SDS011;39100;53.480;6.158;2022-12-08T02:46:04;0.17;;;0.08;;
52868;SDS011;39100;53.480;6.158;2022-12-08T02:48:35;0.30;;;0.10;;
52868;SDS011;39100;53.480;6.158;2022-12-08T02:51:00;3.00;;;0.28;;
52868;SDS011;39100;53.480;6.158;2022-12-08T02:53:27;0.40;;;0.10;;
52868;SDS011;39100;53.480;6.158;2022-12-08T02:56:04;1.65;;;0.10;;
52868;SDS011;39100;53.480;6.158;2022-12-08T03:04:25;0.63;;;0.10;;
52868;SDS011;39100;53.480;6.158;2022-12-08T03:07:06;0.30;;;0.00;;
52868;SDS011;39100;53.480;6.158;2022-12-08T03:10:08;1.10;;;0.15;;
52868;SDS011;39100;53.480;6.158;2022-12-08T03:15:38;1.08;;;0.10;;
52868;SDS011;39100;53.480;6.158;2022-12-08T03:18:05;2.03;;;0.10;;
52868;SDS011;39100;53.480;6.158;2022-12-08T03:20:34;1.00;;;0.15;;
52868;SDS011;39100;53.480;6.158;2022-12-08T03:23:04;1.10;;;0.00;;
52868;SDS011;39100;53.480;6.158;2022-12-08T03:25:32;0.20;;;0.00;;
52868;SDS011;39100;53.480;6.158;2022-12-08T03:28:03;1.88;;;0.20;;
52868;SDS011;39100;53.480;6.158;2022-12-08T03:30:30;1.08;;;0.13;;
52868;SDS011;39100;53.480;6.158;2022-12-08T03:33:06;1.88;;;0.30;;
52868;SDS011;39100;53.480;6.158;2022-12-08T03:35:47;0.70;;;0.20;;
52868;SDS011;39100;53.480;6.158;2022-12-08T03:38:15;0.10;;;0.00;;
52868;SDS011;39100;53.480;6.158;2022-12-08T03:40:41;0.95;;;0.10;;
52868;SDS011;39100;53.480;6.158;2022-12-08T03:43:07;1.80;;;0.17;;
52868;SDS011;39100;53.480;6.158;2022-12-08T03:45:33;0.40;;;0.00;;
52868;SDS011;39100;53.480;6.158;2022-12-08T03:47:59;0.77;;;0.20;;
52868;SDS011;39100;53.480;6.158;2022-12-08T03:50:25;1.17;;;0.10;;
52868;SDS011;39100;53.480;6.158;2022-12-08T03:52:50;0.45;;;0.00;;
52868;SDS011;39100;53.480;6.158;2022-12-08T03:55:16;1.65;;;0.10;;
52868;SDS011;39100;53.480;6.158;2022-12-08T03:57:42;1.48;;;0.10;;
52868;SDS011;39100;53.480;6.158;2022-12-08T04:00:08;3.63;;;0.17;;
52868;SDS011;39100;53.480;6.158;2022-12-08T04:02:38;2.17;;;0.20;;
52868;SDS011;39100;53.480;6.158;2022-12-08T04:05:03;0.50;;;0.10;;
52868;SDS011;39100;53.480;6.158;2022-12-08T04:07:29;0.65;;;0.20;;
52868;SDS011;39100;53.480;6.158;2022-12-08T04:09:55;0.63;;;0.10;;
52868;SDS011;39100;53.480;6.158;2022-12-08T04:12:20;0.10;;;0.00;;
52868;SDS011;39100;53.480;6.158;2022-12-08T04:14:46;0.70;;;0.00;;
52868;SDS011;39100;53.480;6.158;2022-12-08T04:17:11;0.40;;;0.17;;
52868;SDS011;39100;53.480;6.158;2022-12-08T04:19:37;2.20;;;0.10;;
52868;SDS011;39100;53.480;6.158;2022-12-08T04:22:04;0.05;;;0.00;;
52868;SDS011;39100;53.480;6.158;2022-12-08T04:24:30;0.47;;;0.03;;
52868;SDS011;39100;53.480;6.158;2022-12-08T04:26:56;0.93;;;0.00;;
52868;SDS011;39100;53.480;6.158;2022-12-08T04:29:22;0.32;;;0.10;;
52868;SDS011;39100;53.480;6.158;2022-12-08T04:31:47;0.43;;;0.30;;
52868;SDS011;39100;53.480;6.158;2022-12-08T04:34:13;0.82;;;0.10;;
52868;SDS011;39100;53.480;6.158;2022-12-08T04:36:38;2.25;;;0.05;;
52868;SDS011;39100;53.480;6.158;2022-12-08T04:39:04;0.68;;;0.00;;
52868;SDS011;39100;53.480;6.158;2022-12-08T04:41:29;0.20;;;0.20;;
52868;SDS011;39100;53.480;6.158;2022-12-08T04:43:55;1.45;;;0.00;;
52868;SDS011;39100;53.480;6.158;2022-12-08T04:46:20;1.02;;;0.15;;
52868;SDS011;39100;53.480;6.158;2022-12-08T04:48:46;2.72;;;0.45;;
52868;SDS011;39100;53.480;6.158;2022-12-08T04:51:14;0.77;;;0.00;;
52868;SDS011;39100;53.480;6.158;2022-12-08T04:53:44;0.13;;;0.08;;
52868;SDS011;39100;53.480;6.158;2022-12-08T04:56:13;0.35;;;0.20;;
52868;SDS011;39100;53.480;6.158;2022-12-08T04:58:40;0.82;;;0.13;;
52868;SDS011;39100;53.480;6.158;2022-12-08T05:01:06;1.02;;;0.08;;
52868;SDS011;39100;53.480;6.158;2022-12-08T05:03:31;0.93;;;0.28;;
52868;SDS011;39100;53.480;6.158;2022-12-08T05:06:00;1.77;;;0.10;;
52868;SDS011;39100;53.480;6.158;2022-12-08T05:08:26;3.53;;;0.55;;
52868;SDS011;39100;53.480;6.158;2022-12-08T05:10:52;0.05;;;0.05;;
52868;SDS011;39100;53.480;6.158;2022-12-08T05:13:17;0.28;;;0.00;;
52868;SDS011;39100;53.480;6.158;2022-12-08T05:15:43;2.78;;;0.80;;
52868;SDS011;39100;53.480;6.158;2022-12-08T05:18:09;0.95;;;0.10;;
52868;SDS011;39100;53.480;6.158;2022-12-08T05:20:35;1.67;;;0.10;;
52868;SDS011;39100;53.480;6.158;2022-12-08T05:23:00;0.30;;;0.20;;
52868;SDS011;39100;53.480;6.158;2022-12-08T05:25:26;2.78;;;0.22;;
52868;SDS011;39100;53.480;6.158;2022-12-08T05:27:52;0.85;;;0.40;;
52868;SDS011;39100;53.480;6.158;2022-12-08T05:30:17;2.92;;;1.02;;
52868;SDS011;39100;53.480;6.158;2022-12-08T05:32:43;2.30;;;0.13;;
52868;SDS011;39100;53.480;6.158;2022-12-08T05:35:08;1.33;;;0.38;;
52868;SDS011;39100;53.480;6.158;2022-12-08T05:37:34;1.17;;;0.10;;
52868;SDS011;39100;53.480;6.158;2022-12-08T05:40:00;2.28;;;0.68;;
52868;SDS011;39100;53.480;6.158;2022-12-08T05:42:26;1.67;;;0.13;;
52868;SDS011;39100;53.480;6.158;2022-12-08T05:44:51;2.30;;;0.13;;
52868;SDS011;39100;53.480;6.158;2022-12-08T05:47:17;1.75;;;0.40;;
52868;SDS011;39100;53.480;6.158;2022-12-08T05:49:43;1.15;;;0.10;;
52868;SDS011;39100;53.480;6.158;2022-12-08T05:52:08;1.52;;;0.45;;
52868;SDS011;39100;53.480;6.158;2022-12-08T05:54:34;3.78;;;0.40;;
52868;SDS011;39100;53.480;6.158;2022-12-08T05:57:00;3.25;;;0.25;;
52868;SDS011;39100;53.480;6.158;2022-12-08T05:59:25;1.92;;;0.10;;
52868;SDS011;39100;53.480;6.158;2022-12-08T06:01:51;3.10;;;0.75;;
52868;SDS011;39100;53.480;6.158;2022-12-08T06:04:16;0.45;;;0.10;;
52868;SDS011;39100;53.480;6.158;2022-12-08T06:06:42;0.77;;;0.10;;
52868;SDS011;39100;53.480;6.158;2022-12-08T06:09:08;1.30;;;0.10;;
52868;SDS011;39100;53.480;6.158;2022-12-08T06:11:34;2.85;;;0.10;;
52868;SDS011;39100;53.480;6.158;2022-12-08T06:14:00;0.25;;;0.10;;
52868;SDS011;39100;53.480;6.158;2022-12-08T06:16:26;1.70;;;0.20;;
52868;SDS011;39100;53.480;6.158;2022-12-08T06:18:52;1.35;;;0.20;;
52868;SDS011;39100;53.480;6.158;2022-12-08T06:21:19;2.72;;;0.20;;
52868;SDS011;39100;53.480;6.158;2022-12-08T06:23:48;1.95;;;0.20;;
52868;SDS011;39100;53.480;6.158;2022-12-08T06:26:15;1.85;;;0.10;;
52868;SDS011;39100;53.480;6.158;2022-12-08T06:28:41;1.45;;;0.10;;
52868;SDS011;39100;53.480;6.158;2022-12-08T06:31:17;2.75;;;0.32;;
52868;SDS011;39100;53.480;6.158;2022-12-08T06:33:52;2.75;;;0.35;;
52868;SDS011;39100;53.480;6.158;2022-12-08T06:36:20;1.20;;;0.10;;
52868;SDS011;39100;53.480;6.158;2022-12-08T06:38:47;2.25;;;0.22;;
52868;SDS011;39100;53.480;6.158;2022-12-08T06:41:13;1.83;;;0.10;;
52868;SDS011;39100;53.480;6.158;2022-12-08T06:43:39;0.28;;;0.10;;
52868;SDS011;39100;53.480;6.158;2022-12-08T06:46:07;0.57;;;0.17;;
52868;SDS011;39100;53.480;6.158;2022-12-08T06:48:34;1.40;;;0.00;;
52868;SDS011;39100;53.480;6.158;2022-12-08T06:51:10;0.20;;;0.00;;
52868;SDS011;39100;53.480;6.158;2022-12-08T06:53:38;0.20;;;0.20;;
52868;SDS011;39100;53.480;6.158;2022-12-08T06:56:04;3.03;;;0.20;;
52868;SDS011;39100;53.480;6.158;2022-12-08T06:58:31;1.25;;;0.08;;
52868;SDS011;39100;53.480;6.158;2022-12-08T07:01:01;1.85;;;0.10;;
52868;SDS011;39100;53.480;6.158;2022-12-08T07:03:37;0.45;;;0.10;;
52868;SDS011;39100;53.480;6.158;2022-12-08T07:06:04;2.17;;;0.10;;
52868;SDS011;39100;53.480;6.158;2022-12-08T07:08:30;1.33;;;0.00;;
52868;SDS011;39100;53.480;6.158;2022-12-08T07:10:56;1.95;;;0.10;;
52868;SDS011;39100;53.480;6.158;2022-12-08T07:13:22;0.43;;;0.00;;
52868;SDS011;39100;53.480;6.158;2022-12-08T07:15:48;0.22;;;0.10;;
52868;SDS011;39100;53.480;6.158;2022-12-08T07:18:13;3.53;;;0.10;;
52868;SDS011;39100;53.480;6.158;2022-12-08T07:20:39;0.70;;;0.00;;
52868;SDS011;39100;53.480;6.158;2022-12-08T07:23:05;2.05;;;0.10;;
52868;SDS011;39100;53.480;6.158;2022-12-08T07:25:30;1.30;;;0.10;;
52868;SDS011;39100;53.480;6.158;2022-12-08T07:27:56;1.00;;;0.10;;
52868;SDS011;39100;53.480;6.158;2022-12-08T07:30:22;0.65;;;0.00;;
52868;SDS011;39100;53.480;6.158;2022-12-08T07:32:48;0.65;;;0.17;;
52868;SDS011;39100;53.480;6.158;2022-12-08T07:35:14;1.65;;;0.10;;
52868;SDS011;39100;53.480;6.158;2022-12-08T07:37:39;0.95;;;0.10;;
52868;SDS011;39100;53.480;6.158;2022-12-08T07:40:05;1.13;;;0.10;;
52868;SDS011;39100;53.480;6.158;2022-12-08T07:42:32;0.80;;;0.00;;
52868;SDS011;39100;53.480;6.158;2022-12-08T07:44:58;4.10;;;0.22;;
52868;SDS011;39100;53.480;6.158;2022-12-08T07:47:24;2.08;;;0.75;;
52868;SDS011;39100;53.480;6.158;2022-12-08T07:49:50;1.05;;;0.10;;
52868;SDS011;39100;53.480;6.158;2022-12-08T07:52:15;0.80;;;0.10;;
52868;SDS011;39100;53.480;6.158;2022-12-08T07:54:41;0.40;;;0.03;;
52868;SDS011;39100;53.480;6.158;2022-12-08T07:57:07;1.95;;;0.43;;
52868;SDS011;39100;53.480;6.158;2022-12-08T07:59:33;1.20;;;0.40;;
52868;SDS011;39100;53.480;6.158;2022-12-08T08:01:59;0.82;;;0.30;;
52868;SDS011;39100;53.480;6.158;2022-12-08T08:04:24;2.80;;;0.57;;
52868;SDS011;39100;53.480;6.158;2022-12-08T08:06:50;1.48;;;0.20;;
52868;SDS011;39100;53.480;6.158;2022-12-08T08:09:16;0.90;;;0.28;;
52868;SDS011;39100;53.480;6.158;2022-12-08T08:11:41;0.25;;;0.00;;
52868;SDS011;39100;53.480;6.158;2022-12-08T08:14:07;1.45;;;0.43;;
52868;SDS011;39100;53.480;6.158;2022-12-08T08:16:32;1.27;;;0.10;;
52868;SDS011;39100;53.480;6.158;2022-12-08T08:18:58;0.90;;;0.20;;
52868;SDS011;39100;53.480;6.158;2022-12-08T08:21:23;0.30;;;0.10;;
52868;SDS011;39100;53.480;6.158;2022-12-08T08:23:49;1.23;;;0.08;;
52868;SDS011;39100;53.480;6.158;2022-12-08T08:26:15;1.60;;;0.10;;
52868;SDS011;39100;53.480;6.158;2022-12-08T08:28:40;0.28;;;0.00;;
52868;SDS011;39100;53.480;6.158;2022-12-08T08:31:07;1.55;;;0.20;;
52868;SDS011;39100;53.480;6.158;2022-12-08T08:33:33;1.60;;;0.30;;
52868;SDS011;39100;53.480;6.158;2022-12-08T08:35:59;0.40;;;0.20;;
52868;SDS011;39100;53.480;6.158;2022-12-08T08:38:24;0.30;;;0.00;;
52868;SDS011;39100;53.480;6.158;2022-12-08T08:40:50;1.65;;;0.28;;
52868;SDS011;39100;53.480;6.158;2022-12-08T08:43:16;0.65;;;0.10;;
52868;SDS011;39100;53.480;6.158;2022-12-08T08:45:57;0.63;;;0.32;;
52868;SDS011;39100;53.480;6.158;2022-12-08T08:48:27;0.20;;;0.10;;
52868;SDS011;39100;53.480;6.158;2022-12-08T08:50:54;1.55;;;0.40;;
52868;SDS011;39100;53.480;6.158;2022-12-08T08:53:20;0.85;;;0.17;;
52868;SDS011;39100;53.480;6.158;2022-12-08T08:55:46;2.88;;;0.22;;
52868;SDS011;39100;53.480;6.158;2022-12-08T08:58:11;0.40;;;0.25;;
52868;SDS011;39100;53.480;6.158;2022-12-08T09:00:37;0.65;;;0.40;;
52868;SDS011;39100;53.480;6.158;2022-12-08T09:03:03;0.38;;;0.10;;
52868;SDS011;39100;53.480;6.158;2022-12-08T09:05:29;1.02;;;0.10;;
52868;SDS011;39100;53.480;6.158;2022-12-08T09:07:54;0.52;;;0.20;;
52868;SDS011;39100;53.480;6.158;2022-12-08T09:10:20;2.80;;;0.32;;
52868;SDS011;39100;53.480;6.158;2022-12-08T09:12:46;0.35;;;0.25;;
52868;SDS011;39100;53.480;6.158;2022-12-08T09:15:12;2.83;;;0.40;;
52868;SDS011;39100;53.480;6.158;2022-12-08T09:17:37;2.33;;;0.85;;
52868;SDS011;39100;53.480;6.158;2022-12-08T09:20:04;3.00;;;0.25;;
52868;SDS011;39100;53.480;6.158;2022-12-08T09:22:32;1.88;;;0.20;;
52868;SDS011;39100;53.480;6.158;2022-12-08T09:24:58;0.93;;;0.20;;
52868;SDS011;39100;53.480;6.158;2022-12-08T09:27:23;2.17;;;0.50;;
52868;SDS011;39100;53.480;6.158;2022-12-08T09:29:49;3.00;;;0.77;;
52868;SDS011;39100;53.480;6.158;2022-12-08T09:32:15;2.92;;;0.57;;
52868;SDS011;39100;53.480;6.158;2022-12-08T09:34:40;0.68;;;0.32;;
52868;SDS011;39100;53.480;6.158;2022-12-08T09:37:06;1.85;;;0.30;;
52868;SDS011;39100;53.480;6.158;2022-12-08T09:39:32;1.35;;;0.25;;
52868;SDS011;39100;53.480;6.158;2022-12-08T09:44:35;1.92;;;0.20;;
52868;SDS011;39100;53.480;6.158;2022-12-08T09:47:21;0.57;;;0.15;;
52868;SDS011;39100;53.480;6.158;2022-12-08T09:52:33;1.60;;;0.20;;
52868;SDS011;39100;53.480;6.158;2022-12-08T09:55:11;0.47;;;0.17;;
52868;SDS011;39100;53.480;6.158;2022-12-08T09:57:45;0.45;;;0.15;;
52868;SDS011;39100;53.480;6.158;2022-12-08T10:00:17;1.10;;;0.32;;
52868;SDS011;39100;53.480;6.158;2022-12-08T10:02:43;0.30;;;0.10;;
52868;SDS011;39100;53.480;6.158;2022-12-08T10:05:11;0.77;;;0.20;;
52868;SDS011;39100;53.480;6.158;2022-12-08T10:07:46;0.63;;;0.38;;
52868;SDS011;39100;53.480;6.158;2022-12-08T10:15:50;0.10;;;0.10;;
52868;SDS011;39100;53.480;6.158;2022-12-08T10:18:27;1.33;;;0.15;;
52868;SDS011;39100;53.480;6.158;2022-12-08T10:21:04;2.38;;;0.20;;
52868;SDS011;39100;53.480;6.158;2022-12-08T10:23:43;0.70;;;0.10;;
52868;SDS011;39100;53.480;6.158;2022-12-08T10:26:14;2.75;;;0.00;;
52868;SDS011;39100;53.480;6.158;2022-12-08T10:28:41;0.38;;;0.10;;
52868;SDS011;39100;53.480;6.158;2022-12-08T10:31:18;1.85;;;0.10;;
52868;SDS011;39100;53.480;6.158;2022-12-08T10:33:45;0.32;;;0.00;;
52868;SDS011;39100;53.480;6.158;2022-12-08T10:36:13;0.55;;;0.08;;
52868;SDS011;39100;53.480;6.158;2022-12-08T10:38:39;0.90;;;0.45;;
52868;SDS011;39100;53.480;6.158;2022-12-08T10:43:33;1.17;;;0.15;;
52868;SDS011;39100;53.480;6.158;2022-12-08T10:46:09;3.03;;;0.20;;
52868;SDS011;39100;53.480;6.158;2022-12-08T10:48:54;1.38;;;0.00;;
52868;SDS011;39100;53.480;6.158;2022-12-08T10:51:35;1.25;;;0.00;;
52868;SDS011;39100;53.480;6.158;2022-12-08T10:54:02;0.45;;;0.00;;
52868;SDS011;39100;53.480;6.158;2022-12-08T10:56:30;0.32;;;0.00;;
52868;SDS011;39100;53.480;6.158;2022-12-08T10:59:03;0.22;;;0.00;;
52868;SDS011;39100;53.480;6.158;2022-12-08T11:01:40;0.10;;;0.00;;
52868;SDS011;39100;53.480;6.158;2022-12-08T11:04:13;0.10;;;0.00;;
52868;SDS011;39100;53.480;6.158;2022-12-08T11:06:44;0.10;;;0.05;;
52868;SDS011;39100;53.480;6.158;2022-12-08T11:14:14;2.40;;;0.82;;
52868;SDS011;39100;53.480;6.158;2022-12-08T11:17:53;2.30;;;0.60;;
52868;SDS011;39100;53.480;6.158;2022-12-08T11:22:42;0.60;;;0.20;;
52868;SDS011;39100;53.480;6.158;2022-12-08T11:25:10;1.95;;;0.10;;
52868;SDS011;39100;53.480;6.158;2022-12-08T11:27:57;1.52;;;0.00;;
52868;SDS011;39100;53.480;6.158;2022-12-08T11:30:29;0.75;;;0.00;;
52868;SDS011;39100;53.480;6.158;2022-12-08T11:35:36;0.88;;;0.40;;
52868;SDS011;39100;53.480;6.158;2022-12-08T11:38:05;1.85;;;0.90;;
52868;SDS011;39100;53.480;6.158;2022-12-08T11:40:39;1.35;;;0.50;;
52868;SDS011;39100;53.480;6.158;2022-12-08T11:43:15;3.30;;;0.40;;
52868;SDS011;39100;53.480;6.158;2022-12-08T11:45:49;0.40;;;0.30;;
52868;SDS011;39100;53.480;6.158;2022-12-08T11:48:25;1.55;;;0.63;;
52868;SDS011;39100;53.480;6.158;2022-12-08T11:51:02;0.63;;;0.40;;
52868;SDS011;39100;53.480;6.158;2022-12-08T11:53:40;1.15;;;0.40;;
52868;SDS011;39100;53.480;6.158;2022-12-08T11:56:28;2.92;;;0.57;;
52868;SDS011;39100;53.480;6.158;2022-12-08T11:59:00;0.57;;;0.40;;
52868;SDS011;39100;53.480;6.158;2022-12-08T12:01:32;0.38;;;0.30;;
52868;SDS011;39100;53.480;6.158;2022-12-08T12:04:12;0.30;;;0.20;;
52868;SDS011;39100;53.480;6.158;2022-12-08T12:06:48;0.82;;;0.30;;
52868;SDS011;39100;53.480;6.158;2022-12-08T12:09:46;0.52;;;0.50;;
52868;SDS011;39100;53.480;6.158;2022-12-08T12:17:58;1.48;;;0.90;;
52868;SDS011;39100;53.480;6.158;2022-12-08T12:23:15;2.47;;;1.05;;
52868;SDS011;39100;53.480;6.158;2022-12-08T12:26:02;1.38;;;0.98;;
52868;SDS011;39100;53.480;6.158;2022-12-08T12:28:54;1.15;;;1.08;;
52868;SDS011;39100;53.480;6.158;2022-12-08T12:31:27;1.58;;;1.00;;
52868;SDS011;39100;53.480;6.158;2022-12-08T12:34:06;2.95;;;1.60;;
52868;SDS011;39100;53.480;6.158;2022-12-08T12:36:45;1.33;;;1.10;;
52868;SDS011;39100;53.480;6.158;2022-12-08T12:39:17;0.47;;;0.25;;
52868;SDS011;39100;53.480;6.158;2022-12-08T12:41:49;3.07;;;0.87;;
52868;SDS011;39100;53.480;6.158;2022-12-08T12:44:24;1.73;;;0.50;;
52868;SDS011;39100;53.480;6.158;2022-12-08T12:47:03;0.82;;;0.47;;
52868;SDS011;39100;53.480;6.158;2022-12-08T12:57:20;2.42;;;0.60;;
52868;SDS011;39100;53.480;6.158;2022-12-08T13:02:29;1.08;;;0.30;;
52868;SDS011;39100;53.480;6.158;2022-12-08T13:07:49;0.93;;;0.38;;
52868;SDS011;39100;53.480;6.158;2022-12-08T13:10:22;1.25;;;0.20;;
52868;SDS011;39100;53.480;6.158;2022-12-08T13:15:35;0.40;;;0.20;;
52868;SDS011;39100;53.480;6.158;2022-12-08T13:18:03;0.93;;;0.15;;
52868;SDS011;39100;53.480;6.158;2022-12-08T13:20:30;0.30;;;0.10;;
52868;SDS011;39100;53.480;6.158;2022-12-08T13:23:23;1.38;;;0.40;;
52868;SDS011;39100;53.480;6.158;2022-12-08T13:26:09;0.47;;;0.35;;
52868;SDS011;39100;53.480;6.158;2022-12-08T13:31:36;0.55;;;0.20;;
52868;SDS011;39100;53.480;6.158;2022-12-08T13:34:06;0.10;;;0.00;;
52868;SDS011;39100;53.480;6.158;2022-12-08T13:36:48;1.98;;;0.10;;
52868;SDS011;39100;53.480;6.158;2022-12-08T13:39:28;0.38;;;0.20;;
52868;SDS011;39100;53.480;6.158;2022-12-08T13:44:45;0.80;;;0.10;;
52868;SDS011;39100;53.480;6.158;2022-12-08T13:47:26;1.05;;;0.10;;
52868;SDS011;39100;53.480;6.158;2022-12-08T13:50:02;1.95;;;0.00;;
52868;SDS011;39100;53.480;6.158;2022-12-08T13:55:25;0.20;;;0.00;;
52868;SDS011;39100;53.480;6.158;2022-12-08T13:58:24;0.20;;;0.00;;
52868;SDS011;39100;53.480;6.158;2022-12-08T14:01:10;0.20;;;0.10;;
52868;SDS011;39100;53.480;6.158;2022-12-08T14:06:17;0.25;;;0.13;;
52868;SDS011;39100;53.480;6.158;2022-12-08T14:08:46;0.85;;;0.40;;
52868;SDS011;39100;53.480;6.158;2022-12-08T14:11:27;0.50;;;0.20;;
52868;SDS011;39100;53.480;6.158;2022-12-08T14:14:00;0.30;;;0.13;;
52868;SDS011;39100;53.480;6.158;2022-12-08T14:16:28;0.65;;;0.10;;
52868;SDS011;39100;53.480;6.158;2022-12-08T14:19:04;1.38;;;0.30;;
52868;SDS011;39100;53.480;6.158;2022-12-08T14:21:31;0.37;;;0.13;;
52868;SDS011;39100;53.480;6.158;2022-12-08T14:24:00;0.52;;;0.30;;
52868;SDS011;39100;53.480;6.158;2022-12-08T14:26:29;1.33;;;0.45;;
52868;SDS011;39100;53.480;6.158;2022-12-08T14:28:57;0.80;;;0.40;;
52868;SDS011;39100;53.480;6.158;2022-12-08T14:31:23;0.60;;;0.50;;
52868;SDS011;39100;53.480;6.158;2022-12-08T14:33:49;0.75;;;0.50;;
52868;SDS011;39100;53.480;6.158;2022-12-08T14:36:15;1.48;;;0.45;;
52868;SDS011;39100;53.480;6.158;2022-12-08T14:38:41;1.67;;;0.00;;
52868;SDS011;39100;53.480;6.158;2022-12-08T14:41:07;2.05;;;0.10;;
52868;SDS011;39100;53.480;6.158;2022-12-08T14:43:35;0.35;;;0.10;;
52868;SDS011;39100;53.480;6.158;2022-12-08T14:46:02;0.98;;;0.00;;
52868;SDS011;39100;53.480;6.158;2022-12-08T14:51:20;1.55;;;0.10;;
52868;SDS011;39100;53.480;6.158;2022-12-08T14:56:32;0.35;;;0.03;;
52868;SDS011;39100;53.480;6.158;2022-12-08T14:59:19;0.28;;;0.10;;
52868;SDS011;39100;53.480;6.158;2022-12-08T15:05:04;0.40;;;0.35;;
52868;SDS011;39100;53.480;6.158;2022-12-08T15:10:26;0.22;;;0.22;;
52868;SDS011;39100;53.480;6.158;2022-12-08T15:15:52;1.75;;;0.17;;
52868;SDS011;39100;53.480;6.158;2022-12-08T15:18:35;0.60;;;0.20;;
52868;SDS011;39100;53.480;6.158;2022-12-08T15:21:06;0.93;;;0.25;;
52868;SDS011;39100;53.480;6.158;2022-12-08T15:23:44;0.38;;;0.38;;
52868;SDS011;39100;53.480;6.158;2022-12-08T15:26:22;0.30;;;0.10;;
52868;SDS011;39100;53.480;6.158;2022-12-08T15:28:49;0.45;;;0.30;;
52868;SDS011;39100;53.480;6.158;2022-12-08T15:31:18;0.90;;;0.55;;
52868;SDS011;39100;53.480;6.158;2022-12-08T15:33:44;1.23;;;0.55;;
52868;SDS011;39100;53.480;6.158;2022-12-08T15:36:09;2.67;;;0.90;;
52868;SDS011;39100;53.480;6.158;2022-12-08T15:38:35;0.85;;;0.75;;
52868;SDS011;39100;53.480;6.158;2022-12-08T15:41:02;1.63;;;0.93;;
52868;SDS011;39100;53.480;6.158;2022-12-08T15:43:28;3.20;;;1.58;;
52868;SDS011;39100;53.480;6.158;2022-12-08T15:45:55;2.42;;;1.20;;
52868;SDS011;39100;53.480;6.158;2022-12-08T15:48:21;2.05;;;1.30;;
52868;SDS011;39100;53.480;6.158;2022-12-08T15:50:50;1.92;;;1.02;;
52868;SDS011;39100;53.480;6.158;2022-12-08T15:53:15;0.88;;;0.80;;
52868;SDS011;39100;53.480;6.158;2022-12-08T15:55:41;1.33;;;1.23;;
52868;SDS011;39100;53.480;6.158;2022-12-08T15:58:11;1.23;;;0.80;;
52868;SDS011;39100;53.480;6.158;2022-12-08T16:00:49;1.02;;;0.75;;
52868;SDS011;39100;53.480;6.158;2022-12-08T16:03:26;1.33;;;1.20;;
52868;SDS011;39100;53.480;6.158;2022-12-08T16:05:53;2.20;;;2.00;;
52868;SDS011;39100;53.480;6.158;2022-12-08T16:08:20;6.38;;;3.40;;
52868;SDS011;39100;53.480;6.158;2022-12-08T16:10:46;6.85;;;4.85;;
52868;SDS011;39100;53.480;6.158;2022-12-08T16:13:15;6.78;;;4.55;;
52868;SDS011;39100;53.480;6.158;2022-12-08T16:16:01;4.57;;;3.95;;
52868;SDS011;39100;53.480;6.158;2022-12-08T16:18:30;6.25;;;3.55;;
52868;SDS011;39100;53.480;6.158;2022-12-08T16:20:59;6.20;;;3.90;;
52868;SDS011;39100;53.480;6.158;2022-12-08T16:23:25;6.97;;;3.83;;
52868;SDS011;39100;53.480;6.158;2022-12-08T16:25:51;7.47;;;5.05;;
52868;SDS011;39100;53.480;6.158;2022-12-08T16:28:16;13.48;;;5.65;;
52868;SDS011;39100;53.480;6.158;2022-12-08T16:30:42;15.73;;;5.63;;
52868;SDS011;39100;53.480;6.158;2022-12-08T16:33:08;12.40;;;5.90;;
52868;SDS011;39100;53.480;6.158;2022-12-08T16:35:36;13.43;;;6.57;;
52868;SDS011;39100;53.480;6.158;2022-12-08T16:38:01;11.73;;;5.80;;
52868;SDS011;39100;53.480;6.158;2022-12-08T16:40:27;10.70;;;5.88;;